createdAt,value
2018-06-14T00:00:18.308Z,6.03
2018-06-14T00:02:50.684Z,8.67
2018-06-14T00:05:21.391Z,4.67
2018-06-14T00:07:51.295Z,7.43
2018-06-14T00:10:21.040Z,5.43
2018-06-14T00:12:55.899Z,7.20
2018-06-14T00:15:26.324Z,7.53
2018-06-14T00:17:55.941Z,5.50
2018-06-14T00:20:25.813Z,5.70
2018-06-14T00:22:55.944Z,6.53
2018-06-14T00:25:26.715Z,6.20
2018-06-14T00:27:56.428Z,6.97
2018-06-14T00:30:27.291Z,6.33
2018-06-14T00:32:56.957Z,6.27
2018-06-14T00:35:27.366Z,5.30
2018-06-14T00:37:57.760Z,6.03
2018-06-14T00:40:27.634Z,4.87
2018-06-14T00:42:57.491Z,8.67
2018-06-14T00:45:27.258Z,6.37
2018-06-14T00:47:56.961Z,5.50
2018-06-14T00:50:26.666Z,7.07
2018-06-14T00:52:57.861Z,5.70
2018-06-14T00:55:27.606Z,6.63
2018-06-14T00:57:58.768Z,5.40
2018-06-14T01:00:28.453Z,5.50
2018-06-14T01:02:58.391Z,4.93
2018-06-14T01:05:28.385Z,7.30
2018-06-14T01:07:58.695Z,6.03
2018-06-14T01:10:28.457Z,6.03
2018-06-14T01:12:58.394Z,8.80
2018-06-14T01:15:32.428Z,7.00
2018-06-14T01:18:02.593Z,5.27
2018-06-14T01:20:32.487Z,6.03
2018-06-14T01:23:02.507Z,5.03
2018-06-14T01:25:32.183Z,6.00
2018-06-14T01:28:02.611Z,7.37
2018-06-14T01:30:33.306Z,5.93
2018-06-14T01:33:03.373Z,5.60
2018-06-14T01:35:33.310Z,7.27
2018-06-14T01:38:15.196Z,5.40
2018-06-14T01:40:45.080Z,6.30
2018-06-14T01:43:14.745Z,6.93
2018-06-14T01:45:44.872Z,7.30
2018-06-14T01:48:14.599Z,9.33
2018-06-14T01:50:44.251Z,5.57
2018-06-14T01:53:14.076Z,5.83
2018-06-14T01:55:43.815Z,6.23
2018-06-14T01:58:13.502Z,5.57
2018-06-14T02:00:44.974Z,8.10
2018-06-14T02:03:14.711Z,6.00
2018-06-14T02:05:44.436Z,6.20
2018-06-14T02:08:14.449Z,6.07
2018-06-14T02:10:44.360Z,7.07
2018-06-14T02:13:14.105Z,5.57
2018-06-14T02:15:47.083Z,6.67
2018-06-14T02:18:17.735Z,6.30
2018-06-14T02:20:48.387Z,9.63
2018-06-14T02:23:18.518Z,6.80
2018-06-14T02:25:48.601Z,6.83
2018-06-14T02:28:18.316Z,6.60
2018-06-14T02:30:49.068Z,6.30
2018-06-14T02:33:19.285Z,5.87
2018-06-14T02:35:49.227Z,6.10
2018-06-14T02:38:21.716Z,6.03
2018-06-14T02:40:53.629Z,6.43
2018-06-14T02:43:23.347Z,6.53
2018-06-14T02:45:53.689Z,6.83
2018-06-14T02:48:24.633Z,6.47
2018-06-14T02:50:55.265Z,6.97
2018-06-14T02:53:25.033Z,6.57
2018-06-14T02:55:56.397Z,8.33
2018-06-14T02:58:26.190Z,6.20
2018-06-14T03:00:55.823Z,8.70
2018-06-14T03:03:26.220Z,4.83
2018-06-14T03:05:59.700Z,8.17
2018-06-14T03:08:31.093Z,6.87
2018-06-14T03:11:01.235Z,5.70
2018-06-14T03:13:30.914Z,6.20
2018-06-14T03:16:04.231Z,8.07
2018-06-14T03:18:35.056Z,6.03
2018-06-14T03:21:04.824Z,5.73
2018-06-14T03:26:28.888Z,5.37
2018-06-14T03:28:58.500Z,7.70
2018-06-14T03:31:28.253Z,5.97
2018-06-14T03:33:57.913Z,7.70
2018-06-14T03:36:32.682Z,6.87
2018-06-14T03:39:02.968Z,7.83
2018-06-14T03:41:32.673Z,5.87
2018-06-14T03:44:02.388Z,8.70
2018-06-14T03:46:37.197Z,7.00
2018-06-14T03:49:06.916Z,8.43
2018-06-14T03:51:37.222Z,6.73
2018-06-14T03:54:07.112Z,6.40
2018-06-14T03:56:37.295Z,6.90
2018-06-14T03:59:07.304Z,7.77
2018-06-14T04:01:37.348Z,6.50
2018-06-14T04:04:09.642Z,7.60
2018-06-14T04:06:39.647Z,7.27
2018-06-14T04:09:12.133Z,7.90
2018-06-14T04:11:41.844Z,6.53
2018-06-14T04:14:12.295Z,8.30
2018-06-14T04:16:42.038Z,9.63
2018-06-14T04:19:11.992Z,8.37
2018-06-14T04:21:41.655Z,6.60
2018-06-14T04:24:11.488Z,6.97
2018-06-14T04:26:41.220Z,7.70
2018-06-14T04:29:11.180Z,8.60
2018-06-14T04:31:40.807Z,8.17
2018-06-14T04:34:10.596Z,7.37
2018-06-14T04:36:42.749Z,7.27
2018-06-14T04:39:17.692Z,9.13
2018-06-14T04:41:53.365Z,9.00
2018-06-14T04:44:25.488Z,8.30
2018-06-14T04:47:04.795Z,7.87
2018-06-14T04:49:34.574Z,8.30
2018-06-14T04:52:07.681Z,10.53
2018-06-14T04:54:38.276Z,8.30
2018-06-14T04:57:08.994Z,9.50
2018-06-14T04:59:40.116Z,9.77
2018-06-14T05:02:10.329Z,8.87
2018-06-14T05:04:41.004Z,7.00
2018-06-14T05:07:12.205Z,10.10
2018-06-14T05:09:41.853Z,10.17
2018-06-14T05:12:12.928Z,9.30
2018-06-14T05:14:44.373Z,8.47
2018-06-14T05:17:14.287Z,6.60
2018-06-14T05:19:46.341Z,7.43
2018-06-14T05:22:16.175Z,8.40
2018-06-14T05:24:46.231Z,8.67
2018-06-14T05:27:16.400Z,8.77
2018-06-14T05:29:46.375Z,13.80
2018-06-14T05:32:16.286Z,11.53
2018-06-14T05:34:45.919Z,9.57
2018-06-14T05:37:15.606Z,8.23
2018-06-14T05:39:45.263Z,12.17
2018-06-14T05:42:14.925Z,10.13
2018-06-14T05:44:45.180Z,8.07
2018-06-14T05:47:15.075Z,9.63
2018-06-14T05:49:44.766Z,8.20
2018-06-14T05:52:14.758Z,9.83
2018-06-14T05:54:45.228Z,11.07
2018-06-14T05:57:15.311Z,12.17
2018-06-14T05:59:46.140Z,12.77
2018-06-14T06:02:15.766Z,10.77
2018-06-14T06:04:45.850Z,11.27
2018-06-14T06:07:15.730Z,12.30
2018-06-14T06:09:45.992Z,10.23
2018-06-14T06:12:15.804Z,9.87
2018-06-14T06:14:45.503Z,10.53
2018-06-14T06:17:15.883Z,10.73
2018-06-14T06:19:46.175Z,9.50
2018-06-14T06:22:15.904Z,9.60
2018-06-14T06:24:47.191Z,8.33
2018-06-14T06:27:17.925Z,8.27
2018-06-14T06:29:47.683Z,10.17
2018-06-14T06:32:19.484Z,10.37
2018-06-14T06:34:49.749Z,10.87
2018-06-14T06:37:19.636Z,10.17
2018-06-14T06:39:49.808Z,8.37
2018-06-14T06:42:21.932Z,10.30
2018-06-14T06:44:53.309Z,8.47
2018-06-14T06:47:25.291Z,11.40
2018-06-14T06:49:57.401Z,10.50
2018-06-14T06:52:27.128Z,8.20
2018-06-14T06:54:57.420Z,8.27
2018-06-14T06:57:27.525Z,10.77
2018-06-14T06:59:57.341Z,8.70
2018-06-14T07:02:27.314Z,10.77
2018-06-14T07:04:58.880Z,9.17
2018-06-14T07:07:29.343Z,10.37
2018-06-14T07:10:03.343Z,6.80
2018-06-14T07:12:34.800Z,6.37
2018-06-14T07:15:04.635Z,5.67
2018-06-14T07:17:37.807Z,7.63
2018-06-14T07:20:09.595Z,5.33
2018-06-14T07:22:39.365Z,4.43
2018-06-14T07:25:09.971Z,5.30
2018-06-14T07:27:43.138Z,3.10
2018-06-14T07:30:15.383Z,3.47
2018-06-14T07:32:47.404Z,2.47
2018-06-14T07:35:18.019Z,2.80
2018-06-14T07:37:48.843Z,2.90
2018-06-14T07:40:18.560Z,2.43
2018-06-14T07:42:49.271Z,3.20
2018-06-14T07:45:19.284Z,2.77
2018-06-14T07:47:52.077Z,3.37
2018-06-14T07:55:52.453Z,6.17
2018-06-14T07:58:22.919Z,2.23
2018-06-14T08:00:53.857Z,2.07
2018-06-14T08:03:23.475Z,3.73
2018-06-14T08:05:54.063Z,2.47
2018-06-14T08:08:24.306Z,4.67
2018-06-14T08:10:54.871Z,5.90
2018-06-14T08:13:25.402Z,2.10
2018-06-14T08:15:56.231Z,3.10
2018-06-14T08:18:25.859Z,2.27
2018-06-14T08:20:56.092Z,4.47
2018-06-14T08:23:27.537Z,3.73
2018-06-14T08:25:59.296Z,3.67
2018-06-14T08:28:30.368Z,2.77
2018-06-14T08:31:01.748Z,5.30
2018-06-14T08:33:37.745Z,2.47
2018-06-14T08:36:08.286Z,4.13
2018-06-14T08:38:39.102Z,2.70
2018-06-14T08:41:10.108Z,3.23
2018-06-14T08:43:41.654Z,3.50
2018-06-14T08:46:12.060Z,2.80
2018-06-14T08:48:43.789Z,2.57
2018-06-14T08:51:17.549Z,2.57
2018-06-14T08:53:48.480Z,3.00
2018-06-14T08:56:19.226Z,3.17
2018-06-14T08:58:51.551Z,3.93
2018-06-14T09:01:21.782Z,4.20
2018-06-14T09:03:52.656Z,2.77
2018-06-14T09:06:22.383Z,3.70
2018-06-14T09:08:53.614Z,3.40
2018-06-14T09:11:23.921Z,3.23
2018-06-14T09:13:58.635Z,2.47
2018-06-14T09:16:33.966Z,2.37
2018-06-14T09:19:05.165Z,4.07
2018-06-14T09:21:37.431Z,3.10
2018-06-14T09:24:08.904Z,4.30
2018-06-14T09:26:41.300Z,3.83
2018-06-14T09:29:12.855Z,3.17
2018-06-14T09:31:44.497Z,2.80
2018-06-14T09:34:14.486Z,3.10
2018-06-14T09:36:45.821Z,2.77
2018-06-14T09:39:15.594Z,3.33
2018-06-14T09:41:47.220Z,3.80
2018-06-14T09:44:17.142Z,4.10
2018-06-14T09:46:47.627Z,3.60
2018-06-14T09:49:18.392Z,5.60
2018-06-14T09:51:48.898Z,3.70
2018-06-14T09:54:18.572Z,6.90
2018-06-14T09:56:48.395Z,6.73
2018-06-14T09:59:18.884Z,2.93
2018-06-14T10:01:48.693Z,3.90
2018-06-14T10:04:18.491Z,3.63
2018-06-14T10:06:48.562Z,4.47
2018-06-14T10:09:21.080Z,2.70
2018-06-14T10:11:51.423Z,4.27
2018-06-14T10:14:26.326Z,2.57
2018-06-14T10:16:58.208Z,2.80
2018-06-14T10:19:28.265Z,3.20
2018-06-14T10:22:03.416Z,3.37
2018-06-14T10:24:33.756Z,3.53
2018-06-14T10:27:04.090Z,2.93
2018-06-14T10:29:34.552Z,3.27
2018-06-14T10:32:04.800Z,2.60
2018-06-14T10:34:36.748Z,5.70
2018-06-14T10:37:06.604Z,2.60
2018-06-14T10:39:37.651Z,3.63
2018-06-14T10:42:08.039Z,3.97
2018-06-14T10:44:38.836Z,2.87
2018-06-14T10:47:10.738Z,2.40
2018-06-14T10:49:40.713Z,3.37
2018-06-14T10:52:11.469Z,4.33
2018-06-14T10:54:41.337Z,5.67
2018-06-14T10:57:11.089Z,2.83
2018-06-14T10:59:41.119Z,3.13
2018-06-14T11:02:13.122Z,3.23
2018-06-14T11:04:49.348Z,3.03
2018-06-14T11:07:23.185Z,2.90
2018-06-14T11:09:54.023Z,2.23
2018-06-14T11:12:24.324Z,2.60
2018-06-14T11:14:54.461Z,3.43
2018-06-14T11:17:25.167Z,2.50
2018-06-14T11:19:55.459Z,2.87
2018-06-14T11:22:25.850Z,1.63
2018-06-14T11:25:00.758Z,3.60
2018-06-14T11:27:31.428Z,3.03
2018-06-14T11:30:04.452Z,1.77
2018-06-14T11:32:35.960Z,3.23
2018-06-14T11:35:17.312Z,2.30
2018-06-14T11:37:47.466Z,2.57
2018-06-14T11:40:17.737Z,3.23
2018-06-14T11:42:47.607Z,1.50
2018-06-14T11:45:17.739Z,1.80
2018-06-14T11:47:48.459Z,2.60
2018-06-14T11:50:18.413Z,3.03
2018-06-14T11:52:48.493Z,6.00
2018-06-14T11:55:18.420Z,4.63
2018-06-14T11:57:48.782Z,3.50
2018-06-14T12:00:29.264Z,3.10
2018-06-14T12:02:59.176Z,3.90
2018-06-14T12:05:29.244Z,2.33
2018-06-14T12:08:02.763Z,1.87
2018-06-14T12:10:34.091Z,3.17
2018-06-14T12:13:06.543Z,2.90
2018-06-14T12:15:39.289Z,4.70
2018-06-14T12:18:10.019Z,3.67
2018-06-14T12:20:40.345Z,1.80
2018-06-14T12:23:11.837Z,3.67
2018-06-14T12:25:44.905Z,2.43
2018-06-14T12:28:14.905Z,2.67
2018-06-14T12:30:48.707Z,2.50
2018-06-14T12:33:19.330Z,1.80
2018-06-14T12:35:51.407Z,1.47
2018-06-14T12:38:21.538Z,2.63
2018-06-14T12:40:52.357Z,2.87
2018-06-14T12:43:23.356Z,2.23
2018-06-14T12:45:54.076Z,2.27
2018-06-14T12:48:24.246Z,1.60
2018-06-14T12:50:59.711Z,3.63
2018-06-14T12:53:30.324Z,3.63
2018-06-14T12:56:01.298Z,3.37
2018-06-14T12:58:33.499Z,2.53
2018-06-14T13:01:06.347Z,4.23
2018-06-14T13:03:37.618Z,2.60
2018-06-14T13:06:08.002Z,3.53
2018-06-14T13:08:41.169Z,3.13
2018-06-14T13:11:11.984Z,2.50
2018-06-14T13:13:41.798Z,2.83
2018-06-14T13:16:12.898Z,3.03
2018-06-14T13:18:46.190Z,2.63
2018-06-14T13:21:20.097Z,5.40
2018-06-14T13:23:51.674Z,3.53
2018-06-14T13:26:22.058Z,4.07
2018-06-14T13:28:52.717Z,3.93
2018-06-14T13:31:26.107Z,4.23
2018-06-14T13:33:56.541Z,2.17
2018-06-14T13:36:28.108Z,2.00
2018-06-14T13:38:57.945Z,7.17
2018-06-14T13:44:13.436Z,3.30
2018-06-14T13:46:45.362Z,4.10
2018-06-14T13:49:17.169Z,6.03
2018-06-14T13:51:50.715Z,3.00
2018-06-14T13:54:23.575Z,2.37
2018-06-14T13:56:54.405Z,2.37
2018-06-14T13:59:24.280Z,3.53
2018-06-14T14:01:54.244Z,4.33
2018-06-14T14:04:28.309Z,3.67
2018-06-14T14:07:05.202Z,2.50
2018-06-14T14:09:36.685Z,3.00
2018-06-14T14:12:07.503Z,3.60
2018-06-14T14:14:37.411Z,3.20
2018-06-14T14:17:08.792Z,2.33
2018-06-14T14:19:44.702Z,4.13
2018-06-14T14:22:16.743Z,3.07
2018-06-14T14:24:49.327Z,4.33
2018-06-14T14:27:20.841Z,2.53
2018-06-14T14:29:52.227Z,2.07
2018-06-14T14:32:24.884Z,2.80
2018-06-14T14:34:56.459Z,1.97
2018-06-14T14:37:28.437Z,3.00
2018-06-14T14:39:59.159Z,3.13
2018-06-14T14:42:30.198Z,2.43
2018-06-14T14:45:01.182Z,3.30
2018-06-14T14:47:31.465Z,2.60
2018-06-14T14:50:03.228Z,2.27
2018-06-14T14:52:36.175Z,1.80
2018-06-14T14:55:07.111Z,3.73
2018-06-14T14:57:38.138Z,2.47
2018-06-14T15:00:14.995Z,2.57
2018-06-14T15:02:50.640Z,2.57
2018-06-14T15:05:24.758Z,2.13
2018-06-14T15:07:57.551Z,2.13
2018-06-14T15:10:28.333Z,2.53
2018-06-14T15:13:02.574Z,3.73
2018-06-14T15:15:38.303Z,2.13
2018-06-14T15:18:10.192Z,2.30
2018-06-14T15:20:43.470Z,3.27
2018-06-14T15:23:17.535Z,3.20
2018-06-14T15:25:47.781Z,2.53
2018-06-14T15:28:29.706Z,2.83
2018-06-14T15:31:02.275Z,5.43
2018-06-14T15:33:34.096Z,2.47
2018-06-14T15:36:09.891Z,2.23
2018-06-14T15:38:43.584Z,2.73
2018-06-14T15:41:16.646Z,2.10
2018-06-14T15:43:47.321Z,2.30
2018-06-14T15:46:32.789Z,2.90
2018-06-14T15:49:06.232Z,4.47
2018-06-14T15:51:38.787Z,4.07
2018-06-14T15:54:12.790Z,2.40
2018-06-14T15:56:43.684Z,2.53
2018-06-14T15:59:16.305Z,2.80
2018-06-14T16:01:49.383Z,2.80
2018-06-14T16:04:20.312Z,3.13
2018-06-14T16:06:50.852Z,2.93
2018-06-14T16:09:20.915Z,3.60
2018-06-14T16:11:53.778Z,2.60
2018-06-14T16:14:26.705Z,4.00
2018-06-14T16:17:05.451Z,5.47
2018-06-14T16:19:39.974Z,3.80
2018-06-14T16:22:21.198Z,2.87
2018-06-14T16:24:53.167Z,3.93
2018-06-14T16:27:38.694Z,4.53
2018-06-14T16:30:17.931Z,3.77
2018-06-14T16:32:50.671Z,4.20
2018-06-14T16:35:21.915Z,2.77
2018-06-14T16:37:52.092Z,2.53
2018-06-14T16:40:22.413Z,3.27
2018-06-14T16:42:59.257Z,3.30
2018-06-14T16:45:33.710Z,2.50
2018-06-14T16:48:05.537Z,3.27
2018-06-14T16:50:36.594Z,2.73
2018-06-14T16:53:07.823Z,3.03
2018-06-14T16:55:39.644Z,4.87
2018-06-14T16:58:16.494Z,2.50
2018-06-14T17:00:47.281Z,5.70
2018-06-14T17:03:18.310Z,4.60
2018-06-14T17:05:50.431Z,3.87
2018-06-14T17:08:21.008Z,2.33
2018-06-14T17:10:51.511Z,2.87
2018-06-14T17:13:27.151Z,3.20
2018-06-14T17:15:59.373Z,4.80
2018-06-14T17:18:37.177Z,3.23
2018-06-14T17:21:09.369Z,3.00
2018-06-14T17:23:43.408Z,2.63
2018-06-14T17:26:15.345Z,3.93
2018-06-14T17:28:45.895Z,3.57
2018-06-14T17:31:20.837Z,2.10
2018-06-14T17:33:55.272Z,3.50
2018-06-14T17:36:32.443Z,3.17
2018-06-14T17:39:02.525Z,2.60
2018-06-14T17:41:32.557Z,5.03
2018-06-14T17:44:05.108Z,3.70
2018-06-14T17:46:41.749Z,3.50
2018-06-14T17:49:14.378Z,5.17
2018-06-14T17:51:45.818Z,5.20
2018-06-14T17:54:16.004Z,3.63
2018-06-14T17:56:55.423Z,3.47
2018-06-14T17:59:33.233Z,3.53
2018-06-14T18:02:04.431Z,4.77
2018-06-14T18:04:36.364Z,3.63
2018-06-14T18:07:11.043Z,2.97
2018-06-14T18:09:43.326Z,3.23
2018-06-14T18:12:15.321Z,5.03
2018-06-14T18:14:46.352Z,3.93
2018-06-14T18:17:17.549Z,5.00
2018-06-14T18:19:54.432Z,3.20
2018-06-14T18:22:26.670Z,3.97
2018-06-14T18:25:01.087Z,3.27
2018-06-14T18:27:31.238Z,3.93
2018-06-14T18:30:04.851Z,3.40
2018-06-14T18:32:37.463Z,3.37
2018-06-14T18:35:10.390Z,3.73
2018-06-14T18:37:53.535Z,3.20
2018-06-14T18:40:34.233Z,3.17
2018-06-14T18:43:22.204Z,5.17
2018-06-14T18:45:55.200Z,3.30
2018-06-14T18:48:29.329Z,3.93
2018-06-14T18:51:04.530Z,3.17
2018-06-14T18:53:47.246Z,5.00
2018-06-14T18:56:24.171Z,3.23
2018-06-14T18:58:57.233Z,3.87
2018-06-14T19:01:28.018Z,3.63
2018-06-14T19:04:03.866Z,3.63
2018-06-14T19:06:36.904Z,5.93
2018-06-14T19:09:14.028Z,4.43
2018-06-14T19:11:47.894Z,6.07
2018-06-14T19:14:20.630Z,6.77
2018-06-14T19:16:54.777Z,8.90
2018-06-14T19:19:28.190Z,4.17
2018-06-14T19:21:58.171Z,4.40
2018-06-14T19:24:28.642Z,5.23
2018-06-14T19:26:59.542Z,4.00
2018-06-14T19:29:30.591Z,4.47
2018-06-14T19:32:03.373Z,4.10
2018-06-14T19:34:34.815Z,6.23
2018-06-14T19:37:09.271Z,7.00
2018-06-14T19:39:41.687Z,4.73
2018-06-14T19:42:15.464Z,4.10
2018-06-14T19:44:48.651Z,3.30
2018-06-14T19:47:21.921Z,4.40
2018-06-14T19:50:05.888Z,4.27
2018-06-14T19:52:41.110Z,4.13
2018-06-14T19:55:15.100Z,4.97
2018-06-14T19:57:47.341Z,4.43
2018-06-14T20:00:19.397Z,4.30
2018-06-14T20:02:55.320Z,6.57
2018-06-14T20:05:28.717Z,5.00
2018-06-14T20:08:05.800Z,7.07
2018-06-14T20:10:38.405Z,6.90
2018-06-14T20:13:11.060Z,10.47
2018-06-14T20:15:46.197Z,5.87
2018-06-14T20:18:19.595Z,5.90
2018-06-14T20:20:49.965Z,5.40
2018-06-14T20:23:26.196Z,4.20
2018-06-14T20:26:00.077Z,4.77
2018-06-14T20:28:33.717Z,4.60
2018-06-14T20:31:05.909Z,6.03
2018-06-14T20:33:37.094Z,7.50
2018-06-14T20:36:09.512Z,4.77
2018-06-14T20:38:41.260Z,4.37
2018-06-14T20:41:13.570Z,4.33
2018-06-14T20:43:48.608Z,6.57
2018-06-14T20:46:20.926Z,5.43
2018-06-14T20:48:55.157Z,7.23
2018-06-14T20:51:28.679Z,10.20
2018-06-14T20:54:02.470Z,6.00
2018-06-14T20:56:33.968Z,5.37
2018-06-14T20:59:06.103Z,6.47
2018-06-14T21:01:46.549Z,5.90
2018-06-14T21:04:18.679Z,5.87
2018-06-14T21:06:57.084Z,6.10
2018-06-14T21:09:30.596Z,6.43
2018-06-14T21:12:09.142Z,8.53
2018-06-14T21:14:45.789Z,7.07
2018-06-14T21:17:22.107Z,5.97
2018-06-14T21:20:00.058Z,6.90
2018-06-14T21:22:36.684Z,5.83
2018-06-14T21:25:08.192Z,5.90
2018-06-14T21:27:42.101Z,5.30
2018-06-14T21:30:14.353Z,5.23
2018-06-14T21:32:48.271Z,5.20
2018-06-14T21:35:22.108Z,7.13
2018-06-14T21:37:56.574Z,5.60
2018-06-14T21:40:37.277Z,6.20
2018-06-14T21:43:19.622Z,8.40
2018-06-14T21:45:53.818Z,5.73
2018-06-14T21:48:32.094Z,6.07
2018-06-14T21:51:27.380Z,7.40
2018-06-14T21:54:02.829Z,7.97
2018-06-14T21:56:33.056Z,7.17
2018-06-14T21:59:04.394Z,6.60
2018-06-14T22:01:34.733Z,5.40
2018-06-14T22:04:09.166Z,7.73
2018-06-14T22:06:40.284Z,6.67
2018-06-14T22:09:10.424Z,6.33
2018-06-14T22:11:42.032Z,6.03
2018-06-14T22:14:14.412Z,5.80
2018-06-14T22:16:45.266Z,7.23
2018-06-14T22:19:15.475Z,8.40
2018-06-14T22:21:58.691Z,8.10
2018-06-14T22:24:29.700Z,6.30
2018-06-14T22:27:00.198Z,6.30
2018-06-14T22:29:31.186Z,6.13
2018-06-14T22:32:05.633Z,6.47
2018-06-14T22:34:48.586Z,6.63
2018-06-14T22:37:18.332Z,10.10
2018-06-14T22:39:49.110Z,9.77
2018-06-14T22:42:20.735Z,7.53
2018-06-14T22:44:51.187Z,7.37
2018-06-14T22:47:25.975Z,7.47
2018-06-14T22:49:56.084Z,7.97
2018-06-14T22:53:02.402Z,7.30
2018-06-14T22:55:35.160Z,7.13
2018-06-14T22:58:06.887Z,6.97
2018-06-14T23:01:54.646Z,6.77
2018-06-14T23:04:26.941Z,8.53
2018-06-14T23:07:03.177Z,10.33
2018-06-14T23:10:42.680Z,9.90
2018-06-14T23:13:14.073Z,7.43
2018-06-14T23:15:44.735Z,7.63
2018-06-14T23:18:20.219Z,6.90
2018-06-14T23:20:51.861Z,11.87
2018-06-14T23:23:22.214Z,7.13
2018-06-14T23:25:53.638Z,8.43
2018-06-14T23:28:23.388Z,8.57
2018-06-14T23:30:55.313Z,9.07
2018-06-14T23:33:26.806Z,8.00
2018-06-14T23:35:56.580Z,9.80
2018-06-14T23:38:27.230Z,8.10
2018-06-14T23:40:56.916Z,8.30
2018-06-14T23:43:29.943Z,7.43
2018-06-14T23:46:00.181Z,8.00
2018-06-14T23:48:30.120Z,7.17
2018-06-14T23:51:02.310Z,10.20
2018-06-14T23:53:32.410Z,7.13
2018-06-14T23:56:02.042Z,8.13
2018-06-14T23:58:31.765Z,7.40
